sensor_id;sensor_type;location;lat;lon;timestamp;temperature;humidity
24217;DHT22;12356;49.386;8.688;2024-02-23T00:02:29;10.20;10.50
24217;DHT22;12356;49.386;8.688;2024-02-23T00:04:59;10.20;10.70
24217;DHT22;12356;49.386;8.688;2024-02-23T00:07:30;10.10;11.20
24217;DHT22;12356;49.386;8.688;2024-02-23T00:10:01;10.10;11.50
24217;DHT22;12356;49.386;8.688;2024-02-23T00:12:31;10.10;10.80
24217;DHT22;12356;49.386;8.688;2024-02-23T00:15:02;10.10;11.30
24217;DHT22;12356;49.386;8.688;2024-02-23T00:17:32;10.10;10.80
24217;DHT22;12356;49.386;8.688;2024-02-23T00:20:03;10.10;12.20
24217;DHT22;12356;49.386;8.688;2024-02-23T00:22:34;10.10;11.60
24217;DHT22;12356;49.386;8.688;2024-02-23T00:25:05;10.10;11.10
24217;DHT22;12356;49.386;8.688;2024-02-23T00:27:36;10.00;12.10
24217;DHT22;12356;49.386;8.688;2024-02-23T00:30:07;10.00;12.80
24217;DHT22;12356;49.386;8.688;2024-02-23T00:32:37;10.00;13.40
24217;DHT22;12356;49.386;8.688;2024-02-23T00:35:08;10.00;13.20
24217;DHT22;12356;49.386;8.688;2024-02-23T00:37:39;10.00;13.20
24217;DHT22;12356;49.386;8.688;2024-02-23T00:40:10;10.00;13.00
24217;DHT22;12356;49.386;8.688;2024-02-23T00:42:42;9.90;13.90
24217;DHT22;12356;49.386;8.688;2024-02-23T00:45:13;10.00;14.10
24217;DHT22;12356;49.386;8.688;2024-02-23T00:47:43;10.00;14.20
24217;DHT22;12356;49.386;8.688;2024-02-23T00:50:14;10.00;12.50
24217;DHT22;12356;49.386;8.688;2024-02-23T00:52:45;10.00;13.10
24217;DHT22;12356;49.386;8.688;2024-02-23T00:55:15;9.90;14.60
24217;DHT22;12356;49.386;8.688;2024-02-23T00:57:46;9.90;14.10
24217;DHT22;12356;49.386;8.688;2024-02-23T01:00:17;9.80;14.50
24217;DHT22;12356;49.386;8.688;2024-02-23T01:02:47;9.80;15.00
24217;DHT22;12356;49.386;8.688;2024-02-23T01:05:18;9.80;15.20
24217;DHT22;12356;49.386;8.688;2024-02-23T01:07:49;9.80;14.10
24217;DHT22;12356;49.386;8.688;2024-02-23T01:10:20;9.70;12.80
24217;DHT22;12356;49.386;8.688;2024-02-23T01:12:50;9.70;12.70
24217;DHT22;12356;49.386;8.688;2024-02-23T01:15:21;9.70;13.00
24217;DHT22;12356;49.386;8.688;2024-02-23T01:17:51;9.70;12.50
24217;DHT22;12356;49.386;8.688;2024-02-23T01:20:22;9.70;11.70
24217;DHT22;12356;49.386;8.688;2024-02-23T01:22:53;9.70;12.60
24217;DHT22;12356;49.386;8.688;2024-02-23T01:25:23;9.60;11.40
24217;DHT22;12356;49.386;8.688;2024-02-23T01:27:54;9.60;10.80
24217;DHT22;12356;49.386;8.688;2024-02-23T01:30:24;9.60;10.70
24217;DHT22;12356;49.386;8.688;2024-02-23T01:32:55;9.50;10.70
24217;DHT22;12356;49.386;8.688;2024-02-23T01:35:25;9.50;10.40
24217;DHT22;12356;49.386;8.688;2024-02-23T01:37:56;9.50;11.00
24217;DHT22;12356;49.386;8.688;2024-02-23T01:40:26;9.50;12.10
24217;DHT22;12356;49.386;8.688;2024-02-23T01:43:04;9.50;11.60
24217;DHT22;12356;49.386;8.688;2024-02-23T01:45:35;9.50;11.40
24217;DHT22;12356;49.386;8.688;2024-02-23T01:48:05;9.50;11.80
24217;DHT22;12356;49.386;8.688;2024-02-23T01:50:37;9.50;10.10
24217;DHT22;12356;49.386;8.688;2024-02-23T01:53:10;9.60;11.50
24217;DHT22;12356;49.386;8.688;2024-02-23T01:55:41;9.50;11.80
24217;DHT22;12356;49.386;8.688;2024-02-23T01:58:15;9.50;12.60
24217;DHT22;12356;49.386;8.688;2024-02-23T02:00:45;9.50;13.80
24217;DHT22;12356;49.386;8.688;2024-02-23T02:03:16;9.50;13.90
24217;DHT22;12356;49.386;8.688;2024-02-23T02:05:46;9.50;12.60
24217;DHT22;12356;49.386;8.688;2024-02-23T02:08:17;9.50;13.30
24217;DHT22;12356;49.386;8.688;2024-02-23T02:10:48;9.50;12.60
24217;DHT22;12356;49.386;8.688;2024-02-23T02:13:19;9.40;10.70
24217;DHT22;12356;49.386;8.688;2024-02-23T02:15:49;9.40;9.10
24217;DHT22;12356;49.386;8.688;2024-02-23T02:18:20;9.30;8.50
24217;DHT22;12356;49.386;8.688;2024-02-23T02:20:53;9.20;10.00
24217;DHT22;12356;49.386;8.688;2024-02-23T02:23:25;9.10;10.60
24217;DHT22;12356;49.386;8.688;2024-02-23T02:25:57;8.80;12.10
24217;DHT22;12356;49.386;8.688;2024-02-23T02:28:28;8.70;12.90
24217;DHT22;12356;49.386;8.688;2024-02-23T02:30:58;8.50;14.10
24217;DHT22;12356;49.386;8.688;2024-02-23T02:33:29;8.40;15.50
24217;DHT22;12356;49.386;8.688;2024-02-23T02:35:59;8.40;16.50
24217;DHT22;12356;49.386;8.688;2024-02-23T02:38:30;8.40;16.70
24217;DHT22;12356;49.386;8.688;2024-02-23T02:41:01;8.50;17.00
24217;DHT22;12356;49.386;8.688;2024-02-23T02:43:32;8.50;17.50
24217;DHT22;12356;49.386;8.688;2024-02-23T02:46:03;8.60;17.30
24217;DHT22;12356;49.386;8.688;2024-02-23T02:48:33;8.50;18.00
24217;DHT22;12356;49.386;8.688;2024-02-23T02:51:04;8.60;18.60
24217;DHT22;12356;49.386;8.688;2024-02-23T02:53:34;8.50;18.00
24217;DHT22;12356;49.386;8.688;2024-02-23T02:56:06;8.40;18.60
24217;DHT22;12356;49.386;8.688;2024-02-23T02:58:37;8.30;19.00
24217;DHT22;12356;49.386;8.688;2024-02-23T03:01:08;8.40;20.30
24217;DHT22;12356;49.386;8.688;2024-02-23T03:03:39;8.50;20.30
24217;DHT22;12356;49.386;8.688;2024-02-23T03:06:09;8.60;19.60
24217;DHT22;12356;49.386;8.688;2024-02-23T03:08:42;8.60;20.50
24217;DHT22;12356;49.386;8.688;2024-02-23T03:11:13;8.70;20.50
24217;DHT22;12356;49.386;8.688;2024-02-23T03:13:43;8.70;20.30
24217;DHT22;12356;49.386;8.688;2024-02-23T03:16:15;8.70;20.40
24217;DHT22;12356;49.386;8.688;2024-02-23T03:18:47;8.70;19.20
24217;DHT22;12356;49.386;8.688;2024-02-23T03:21:17;8.70;20.40
24217;DHT22;12356;49.386;8.688;2024-02-23T03:23:48;8.80;17.50
24217;DHT22;12356;49.386;8.688;2024-02-23T03:26:18;8.80;16.30
24217;DHT22;12356;49.386;8.688;2024-02-23T03:28:49;8.80;16.40
24217;DHT22;12356;49.386;8.688;2024-02-23T03:31:20;8.80;17.30
24217;DHT22;12356;49.386;8.688;2024-02-23T03:33:50;8.80;17.70
24217;DHT22;12356;49.386;8.688;2024-02-23T03:36:21;8.90;18.30
24217;DHT22;12356;49.386;8.688;2024-02-23T03:38:52;8.90;18.00
24217;DHT22;12356;49.386;8.688;2024-02-23T03:41:23;8.90;17.00
24217;DHT22;12356;49.386;8.688;2024-02-23T03:43:53;8.80;15.80
24217;DHT22;12356;49.386;8.688;2024-02-23T03:46:24;8.90;16.90
24217;DHT22;12356;49.386;8.688;2024-02-23T03:48:55;8.90;16.70
24217;DHT22;12356;49.386;8.688;2024-02-23T03:51:26;8.80;15.10
24217;DHT22;12356;49.386;8.688;2024-02-23T03:53:56;8.80;15.10
24217;DHT22;12356;49.386;8.688;2024-02-23T03:56:27;8.90;15.20
24217;DHT22;12356;49.386;8.688;2024-02-23T03:58:58;8.90;15.40
24217;DHT22;12356;49.386;8.688;2024-02-23T04:01:29;8.90;12.80
24217;DHT22;12356;49.386;8.688;2024-02-23T04:03:59;8.90;12.70
24217;DHT22;12356;49.386;8.688;2024-02-23T04:06:30;8.90;13.40
24217;DHT22;12356;49.386;8.688;2024-02-23T04:09:01;9.00;11.10
24217;DHT22;12356;49.386;8.688;2024-02-23T04:11:32;8.90;11.50
24217;DHT22;12356;49.386;8.688;2024-02-23T04:14:03;9.00;12.20
24217;DHT22;12356;49.386;8.688;2024-02-23T04:16:35;8.90;10.90
24217;DHT22;12356;49.386;8.688;2024-02-23T04:19:06;9.00;10.70
24217;DHT22;12356;49.386;8.688;2024-02-23T04:21:36;9.00;10.20
24217;DHT22;12356;49.386;8.688;2024-02-23T04:24:07;8.90;10.30
24217;DHT22;12356;49.386;8.688;2024-02-23T04:26:39;8.90;10.70
24217;DHT22;12356;49.386;8.688;2024-02-23T04:29:09;8.90;9.70
24217;DHT22;12356;49.386;8.688;2024-02-23T04:31:40;8.90;10.60
24217;DHT22;12356;49.386;8.688;2024-02-23T04:34:10;8.90;11.20
24217;DHT22;12356;49.386;8.688;2024-02-23T04:36:41;8.80;10.30
24217;DHT22;12356;49.386;8.688;2024-02-23T04:39:12;8.80;12.00
24217;DHT22;12356;49.386;8.688;2024-02-23T04:41:43;8.80;13.00
24217;DHT22;12356;49.386;8.688;2024-02-23T04:44:13;8.80;12.20
24217;DHT22;12356;49.386;8.688;2024-02-23T04:46:44;8.90;12.00
24217;DHT22;12356;49.386;8.688;2024-02-23T04:49:14;8.90;11.70
24217;DHT22;12356;49.386;8.688;2024-02-23T04:51:45;8.80;12.00
24217;DHT22;12356;49.386;8.688;2024-02-23T04:54:15;8.80;12.10
24217;DHT22;12356;49.386;8.688;2024-02-23T04:56:47;8.80;13.60
24217;DHT22;12356;49.386;8.688;2024-02-23T04:59:18;8.80;12.80
24217;DHT22;12356;49.386;8.688;2024-02-23T05:01:48;8.80;12.10
24217;DHT22;12356;49.386;8.688;2024-02-23T05:04:19;8.70;12.40
24217;DHT22;12356;49.386;8.688;2024-02-23T05:06:49;8.80;13.50
24217;DHT22;12356;49.386;8.688;2024-02-23T05:09:20;8.80;13.20
24217;DHT22;12356;49.386;8.688;2024-02-23T05:11:51;8.80;12.20
24217;DHT22;12356;49.386;8.688;2024-02-23T05:14:21;8.70;12.40
24217;DHT22;12356;49.386;8.688;2024-02-23T05:16:52;8.70;12.20
24217;DHT22;12356;49.386;8.688;2024-02-23T05:19:22;8.70;12.70
24217;DHT22;12356;49.386;8.688;2024-02-23T05:21:53;8.70;12.50
24217;DHT22;12356;49.386;8.688;2024-02-23T05:24:24;8.80;12.10
24217;DHT22;12356;49.386;8.688;2024-02-23T05:26:55;8.70;12.00
24217;DHT22;12356;49.386;8.688;2024-02-23T05:29:28;8.70;11.80
24217;DHT22;12356;49.386;8.688;2024-02-23T05:31:59;8.60;11.30
24217;DHT22;12356;49.386;8.688;2024-02-23T05:34:29;8.60;11.90
24217;DHT22;12356;49.386;8.688;2024-02-23T05:37:00;8.60;11.90
24217;DHT22;12356;49.386;8.688;2024-02-23T05:39:32;8.60;10.30
24217;DHT22;12356;49.386;8.688;2024-02-23T05:42:03;8.60;10.40
24217;DHT22;12356;49.386;8.688;2024-02-23T05:44:34;8.60;11.40
24217;DHT22;12356;49.386;8.688;2024-02-23T05:47:05;8.60;11.60
24217;DHT22;12356;49.386;8.688;2024-02-23T05:49:36;8.50;11.70
24217;DHT22;12356;49.386;8.688;2024-02-23T05:52:06;8.60;11.00
24217;DHT22;12356;49.386;8.688;2024-02-23T05:54:37;8.60;10.80
24217;DHT22;12356;49.386;8.688;2024-02-23T05:57:08;8.60;10.70
24217;DHT22;12356;49.386;8.688;2024-02-23T05:59:38;8.60;10.50
24217;DHT22;12356;49.386;8.688;2024-02-23T06:02:09;8.60;10.60
24217;DHT22;12356;49.386;8.688;2024-02-23T06:04:43;8.60;10.10
24217;DHT22;12356;49.386;8.688;2024-02-23T06:07:13;8.50;10.30
24217;DHT22;12356;49.386;8.688;2024-02-23T06:09:46;8.50;9.10
24217;DHT22;12356;49.386;8.688;2024-02-23T06:12:16;8.50;9.70
24217;DHT22;12356;49.386;8.688;2024-02-23T06:14:47;8.60;9.60
24217;DHT22;12356;49.386;8.688;2024-02-23T06:17:17;8.50;8.70
24217;DHT22;12356;49.386;8.688;2024-02-23T06:19:48;8.60;7.60
24217;DHT22;12356;49.386;8.688;2024-02-23T06:22:19;8.50;7.70
24217;DHT22;12356;49.386;8.688;2024-02-23T06:24:52;8.40;7.50
24217;DHT22;12356;49.386;8.688;2024-02-23T06:27:23;8.40;8.20
24217;DHT22;12356;49.386;8.688;2024-02-23T06:29:55;8.40;7.90
24217;DHT22;12356;49.386;8.688;2024-02-23T06:32:26;8.30;8.00
24217;DHT22;12356;49.386;8.688;2024-02-23T06:34:57;8.30;7.40
24217;DHT22;12356;49.386;8.688;2024-02-23T06:37:27;8.20;6.90
24217;DHT22;12356;49.386;8.688;2024-02-23T06:39:58;8.20;5.60
24217;DHT22;12356;49.386;8.688;2024-02-23T06:42:29;8.20;6.60
24217;DHT22;12356;49.386;8.688;2024-02-23T06:44:59;8.10;6.50
24217;DHT22;12356;49.386;8.688;2024-02-23T06:47:31;8.10;6.80
24217;DHT22;12356;49.386;8.688;2024-02-23T06:50:02;8.10;6.70
24217;DHT22;12356;49.386;8.688;2024-02-23T06:52:34;8.10;7.80
24217;DHT22;12356;49.386;8.688;2024-02-23T06:55:04;8.10;6.60
24217;DHT22;12356;49.386;8.688;2024-02-23T06:57:35;8.10;7.40
24217;DHT22;12356;49.386;8.688;2024-02-23T07:00:07;8.10;7.70
24217;DHT22;12356;49.386;8.688;2024-02-23T07:02:38;8.10;6.80
24217;DHT22;12356;49.386;8.688;2024-02-23T07:05:09;8.10;6.00
24217;DHT22;12356;49.386;8.688;2024-02-23T07:07:39;8.10;6.50
24217;DHT22;12356;49.386;8.688;2024-02-23T07:10:10;8.10;5.80
24217;DHT22;12356;49.386;8.688;2024-02-23T07:12:42;8.10;5.50
24217;DHT22;12356;49.386;8.688;2024-02-23T07:15:14;8.00;6.60
24217;DHT22;12356;49.386;8.688;2024-02-23T07:17:45;8.00;5.70
24217;DHT22;12356;49.386;8.688;2024-02-23T07:20:16;8.00;5.70
24217;DHT22;12356;49.386;8.688;2024-02-23T07:22:47;7.90;6.10
24217;DHT22;12356;49.386;8.688;2024-02-23T07:25:18;8.00;7.50
24217;DHT22;12356;49.386;8.688;2024-02-23T07:27:52;8.00;6.80
24217;DHT22;12356;49.386;8.688;2024-02-23T07:30:23;8.00;6.90
24217;DHT22;12356;49.386;8.688;2024-02-23T07:32:53;8.00;6.90
24217;DHT22;12356;49.386;8.688;2024-02-23T07:35:24;8.00;7.10
24217;DHT22;12356;49.386;8.688;2024-02-23T07:37:55;8.00;6.40
24217;DHT22;12356;49.386;8.688;2024-02-23T07:40:26;8.00;6.40
24217;DHT22;12356;49.386;8.688;2024-02-23T07:42:56;8.00;6.20
24217;DHT22;12356;49.386;8.688;2024-02-23T07:45:27;8.10;6.80
24217;DHT22;12356;49.386;8.688;2024-02-23T07:47:57;8.00;6.40
24217;DHT22;12356;49.386;8.688;2024-02-23T07:50:28;8.00;6.30
24217;DHT22;12356;49.386;8.688;2024-02-23T07:52:59;8.00;6.10
24217;DHT22;12356;49.386;8.688;2024-02-23T07:55:29;8.10;7.30
24217;DHT22;12356;49.386;8.688;2024-02-23T07:58:00;8.10;6.90
24217;DHT22;12356;49.386;8.688;2024-02-23T08:00:31;8.00;6.80
24217;DHT22;12356;49.386;8.688;2024-02-23T08:03:02;8.10;8.50
24217;DHT22;12356;49.386;8.688;2024-02-23T08:05:33;8.20;7.40
24217;DHT22;12356;49.386;8.688;2024-02-23T08:08:04;8.20;7.70
24217;DHT22;12356;49.386;8.688;2024-02-23T08:10:34;8.30;7.50
24217;DHT22;12356;49.386;8.688;2024-02-23T08:13:05;8.40;6.50
24217;DHT22;12356;49.386;8.688;2024-02-23T08:15:36;8.50;6.60
24217;DHT22;12356;49.386;8.688;2024-02-23T08:18:07;8.60;4.80
24217;DHT22;12356;49.386;8.688;2024-02-23T08:20:37;8.70;4.30
24217;DHT22;12356;49.386;8.688;2024-02-23T08:23:08;8.80;3.40
24217;DHT22;12356;49.386;8.688;2024-02-23T08:25:39;8.90;2.80
24217;DHT22;12356;49.386;8.688;2024-02-23T08:28:10;8.90;1.00
24217;DHT22;12356;49.386;8.688;2024-02-23T08:30:40;9.00;1.00
24217;DHT22;12356;49.386;8.688;2024-02-23T08:33:11;9.00;1.00
24217;DHT22;12356;49.386;8.688;2024-02-23T08:35:41;9.00;1.70
24217;DHT22;12356;49.386;8.688;2024-02-23T08:38:13;9.10;3.20
24217;DHT22;12356;49.386;8.688;2024-02-23T08:40:43;9.10;3.20
24217;DHT22;12356;49.386;8.688;2024-02-23T08:43:15;9.10;1.20
24217;DHT22;12356;49.386;8.688;2024-02-23T08:45:46;9.10;1.00
24217;DHT22;12356;49.386;8.688;2024-02-23T08:48:16;9.10;1.00
24217;DHT22;12356;49.386;8.688;2024-02-23T08:50:47;9.20;1.00
24217;DHT22;12356;49.386;8.688;2024-02-23T08:53:18;9.20;1.00
24217;DHT22;12356;49.386;8.688;2024-02-23T08:55:48;9.20;1.00
24217;DHT22;12356;49.386;8.688;2024-02-23T08:58:19;9.20;1.00
24217;DHT22;12356;49.386;8.688;2024-02-23T09:00:50;9.20;1.00
24217;DHT22;12356;49.386;8.688;2024-02-23T09:03:20;9.30;1.30
24217;DHT22;12356;49.386;8.688;2024-02-23T09:05:51;9.30;1.00
24217;DHT22;12356;49.386;8.688;2024-02-23T09:08:22;9.30;2.00
24217;DHT22;12356;49.386;8.688;2024-02-23T09:10:52;9.40;2.20
24217;DHT22;12356;49.386;8.688;2024-02-23T09:13:23;9.40;1.00
24217;DHT22;12356;49.386;8.688;2024-02-23T09:15:53;9.40;1.00
24217;DHT22;12356;49.386;8.688;2024-02-23T09:18:24;9.50;1.00
24217;DHT22;12356;49.386;8.688;2024-02-23T09:20:54;9.50;1.00
24217;DHT22;12356;49.386;8.688;2024-02-23T09:23:25;9.60;1.00
24217;DHT22;12356;49.386;8.688;2024-02-23T09:25:56;9.60;1.00
24217;DHT22;12356;49.386;8.688;2024-02-23T09:28:26;9.60;1.00
24217;DHT22;12356;49.386;8.688;2024-02-23T09:30:57;9.60;1.00
24217;DHT22;12356;49.386;8.688;2024-02-23T09:33:28;9.70;1.00
24217;DHT22;12356;49.386;8.688;2024-02-23T09:35:58;9.60;1.00
24217;DHT22;12356;49.386;8.688;2024-02-23T09:38:29;9.60;1.00
24217;DHT22;12356;49.386;8.688;2024-02-23T09:41:03;9.60;1.00
24217;DHT22;12356;49.386;8.688;2024-02-23T09:43:34;9.60;1.00
24217;DHT22;12356;49.386;8.688;2024-02-23T09:46:05;9.60;1.00
24217;DHT22;12356;49.386;8.688;2024-02-23T09:48:35;9.60;1.00
24217;DHT22;12356;49.386;8.688;2024-02-23T09:51:07;9.60;1.00
24217;DHT22;12356;49.386;8.688;2024-02-23T09:53:40;9.60;1.00
24217;DHT22;12356;49.386;8.688;2024-02-23T09:56:11;9.60;1.00
24217;DHT22;12356;49.386;8.688;2024-02-23T09:58:42;9.60;1.00
24217;DHT22;12356;49.386;8.688;2024-02-23T10:01:19;9.60;1.00
24217;DHT22;12356;49.386;8.688;2024-02-23T10:03:50;9.60;1.00
24217;DHT22;12356;49.386;8.688;2024-02-23T10:06:21;9.70;1.00
24217;DHT22;12356;49.386;8.688;2024-02-23T10:08:52;9.70;1.00
24217;DHT22;12356;49.386;8.688;2024-02-23T10:11:24;9.80;1.00
24217;DHT22;12356;49.386;8.688;2024-02-23T10:13:56;9.90;1.00
24217;DHT22;12356;49.386;8.688;2024-02-23T10:16:26;9.90;1.00
24217;DHT22;12356;49.386;8.688;2024-02-23T10:18:57;10.00;1.00
24217;DHT22;12356;49.386;8.688;2024-02-23T10:21:28;10.10;1.00
24217;DHT22;12356;49.386;8.688;2024-02-23T10:23:59;10.30;1.00
24217;DHT22;12356;49.386;8.688;2024-02-23T10:26:29;10.40;1.00
24217;DHT22;12356;49.386;8.688;2024-02-23T10:29:00;10.40;1.00
24217;DHT22;12356;49.386;8.688;2024-02-23T10:31:35;10.50;1.00
24217;DHT22;12356;49.386;8.688;2024-02-23T10:34:10;10.40;1.00
24217;DHT22;12356;49.386;8.688;2024-02-23T10:36:42;10.30;1.00
24217;DHT22;12356;49.386;8.688;2024-02-23T10:39:15;10.30;1.00
24217;DHT22;12356;49.386;8.688;2024-02-23T10:41:50;10.30;1.00
24217;DHT22;12356;49.386;8.688;2024-02-23T10:44:24;10.20;1.00
24217;DHT22;12356;49.386;8.688;2024-02-23T10:46:58;10.30;1.00
24217;DHT22;12356;49.386;8.688;2024-02-23T10:49:31;10.30;1.00
24217;DHT22;12356;49.386;8.688;2024-02-23T10:52:01;10.30;1.00
24217;DHT22;12356;49.386;8.688;2024-02-23T10:54:33;10.40;1.00
24217;DHT22;12356;49.386;8.688;2024-02-23T10:57:04;10.50;1.00
24217;DHT22;12356;49.386;8.688;2024-02-23T10:59:35;10.50;1.00
24217;DHT22;12356;49.386;8.688;2024-02-23T11:02:06;10.60;1.00
24217;DHT22;12356;49.386;8.688;2024-02-23T11:04:38;10.60;1.00
24217;DHT22;12356;49.386;8.688;2024-02-23T11:07:13;10.60;1.00
24217;DHT22;12356;49.386;8.688;2024-02-23T11:09:52;10.70;1.00
24217;DHT22;12356;49.386;8.688;2024-02-23T11:12:24;10.70;1.00
24217;DHT22;12356;49.386;8.688;2024-02-23T11:14:58;10.70;1.00
24217;DHT22;12356;49.386;8.688;2024-02-23T11:17:32;10.70;1.00
24217;DHT22;12356;49.386;8.688;2024-02-23T11:20:04;10.70;1.00
24217;DHT22;12356;49.386;8.688;2024-02-23T11:22:35;10.60;1.00
24217;DHT22;12356;49.386;8.688;2024-02-23T11:25:08;10.60;1.00
24217;DHT22;12356;49.386;8.688;2024-02-23T11:27:39;10.60;1.00
24217;DHT22;12356;49.386;8.688;2024-02-23T11:30:16;10.60;1.00
24217;DHT22;12356;49.386;8.688;2024-02-23T11:32:48;10.60;1.00
24217;DHT22;12356;49.386;8.688;2024-02-23T11:35:19;10.50;1.00
24217;DHT22;12356;49.386;8.688;2024-02-23T11:37:56;10.60;1.00
24217;DHT22;12356;49.386;8.688;2024-02-23T11:40:31;10.60;1.00
24217;DHT22;12356;49.386;8.688;2024-02-23T11:43:02;10.70;1.00
24217;DHT22;12356;49.386;8.688;2024-02-23T11:45:33;10.70;1.00
24217;DHT22;12356;49.386;8.688;2024-02-23T11:48:05;10.70;1.00
24217;DHT22;12356;49.386;8.688;2024-02-23T11:50:36;10.70;1.00
24217;DHT22;12356;49.386;8.688;2024-02-23T11:53:06;10.70;1.00
24217;DHT22;12356;49.386;8.688;2024-02-23T11:55:37;10.80;1.00
24217;DHT22;12356;49.386;8.688;2024-02-23T11:58:08;10.70;1.00
24217;DHT22;12356;49.386;8.688;2024-02-23T12:00:39;10.70;1.00
24217;DHT22;12356;49.386;8.688;2024-02-23T12:03:10;10.70;1.00
24217;DHT22;12356;49.386;8.688;2024-02-23T12:05:40;10.60;1.00
24217;DHT22;12356;49.386;8.688;2024-02-23T12:08:11;10.60;1.00
24217;DHT22;12356;49.386;8.688;2024-02-23T12:10:42;10.60;1.00
24217;DHT22;12356;49.386;8.688;2024-02-23T12:13:13;10.60;1.00
24217;DHT22;12356;49.386;8.688;2024-02-23T12:15:43;10.60;1.00
24217;DHT22;12356;49.386;8.688;2024-02-23T12:18:14;10.60;1.00
24217;DHT22;12356;49.386;8.688;2024-02-23T12:20:47;10.60;1.00
24217;DHT22;12356;49.386;8.688;2024-02-23T12:23:18;10.60;1.00
24217;DHT22;12356;49.386;8.688;2024-02-23T12:25:56;10.60;1.00
24217;DHT22;12356;49.386;8.688;2024-02-23T12:28:27;10.70;1.00
24217;DHT22;12356;49.386;8.688;2024-02-23T12:31:02;10.60;1.00
24217;DHT22;12356;49.386;8.688;2024-02-23T12:33:40;10.60;1.00
24217;DHT22;12356;49.386;8.688;2024-02-23T12:36:11;10.60;1.00
24217;DHT22;12356;49.386;8.688;2024-02-23T12:38:41;10.50;1.00
24217;DHT22;12356;49.386;8.688;2024-02-23T12:41:12;10.50;1.00
24217;DHT22;12356;49.386;8.688;2024-02-23T12:43:42;10.50;1.00
24217;DHT22;12356;49.386;8.688;2024-02-23T12:46:13;10.50;1.00
24217;DHT22;12356;49.386;8.688;2024-02-23T12:48:44;10.50;1.00
24217;DHT22;12356;49.386;8.688;2024-02-23T12:51:15;10.60;1.00
24217;DHT22;12356;49.386;8.688;2024-02-23T12:53:46;10.70;1.00
24217;DHT22;12356;49.386;8.688;2024-02-23T12:56:16;10.60;1.00
24217;DHT22;12356;49.386;8.688;2024-02-23T12:58:48;10.70;1.00
24217;DHT22;12356;49.386;8.688;2024-02-23T13:01:19;10.70;1.00
24217;DHT22;12356;49.386;8.688;2024-02-23T13:03:49;10.70;1.00
24217;DHT22;12356;49.386;8.688;2024-02-23T13:06:20;10.80;1.00
24217;DHT22;12356;49.386;8.688;2024-02-23T13:08:51;10.80;1.00
24217;DHT22;12356;49.386;8.688;2024-02-23T13:11:21;10.80;1.00
24217;DHT22;12356;49.386;8.688;2024-02-23T13:13:52;10.90;1.00
24217;DHT22;12356;49.386;8.688;2024-02-23T13:16:22;11.00;1.00
24217;DHT22;12356;49.386;8.688;2024-02-23T13:18:53;11.10;1.00
24217;DHT22;12356;49.386;8.688;2024-02-23T13:21:24;11.20;1.00
24217;DHT22;12356;49.386;8.688;2024-02-23T13:23:54;11.20;1.00
24217;DHT22;12356;49.386;8.688;2024-02-23T13:26:25;11.10;1.00
24217;DHT22;12356;49.386;8.688;2024-02-23T13:28:55;11.10;1.00
24217;DHT22;12356;49.386;8.688;2024-02-23T13:31:26;11.00;1.00
24217;DHT22;12356;49.386;8.688;2024-02-23T13:33:56;11.00;1.00
24217;DHT22;12356;49.386;8.688;2024-02-23T13:36:27;11.00;1.00
24217;DHT22;12356;49.386;8.688;2024-02-23T13:38:57;11.00;1.00
24217;DHT22;12356;49.386;8.688;2024-02-23T13:41:28;11.10;1.00
24217;DHT22;12356;49.386;8.688;2024-02-23T13:43:59;11.10;1.00
24217;DHT22;12356;49.386;8.688;2024-02-23T13:46:29;11.10;1.00
24217;DHT22;12356;49.386;8.688;2024-02-23T13:49:08;11.10;1.00
24217;DHT22;12356;49.386;8.688;2024-02-23T13:51:39;11.10;1.00
24217;DHT22;12356;49.386;8.688;2024-02-23T13:54:11;11.10;1.00
24217;DHT22;12356;49.386;8.688;2024-02-23T13:56:41;11.10;1.00
24217;DHT22;12356;49.386;8.688;2024-02-23T13:59:12;11.10;1.00
24217;DHT22;12356;49.386;8.688;2024-02-23T14:01:43;11.10;1.00
24217;DHT22;12356;49.386;8.688;2024-02-23T14:04:15;11.10;1.00
24217;DHT22;12356;49.386;8.688;2024-02-23T14:06:46;11.10;1.00
24217;DHT22;12356;49.386;8.688;2024-02-23T14:09:16;11.10;1.00
24217;DHT22;12356;49.386;8.688;2024-02-23T14:11:47;11.10;1.00
24217;DHT22;12356;49.386;8.688;2024-02-23T14:14:18;11.10;1.00
24217;DHT22;12356;49.386;8.688;2024-02-23T14:16:50;11.10;1.00
24217;DHT22;12356;49.386;8.688;2024-02-23T14:19:21;11.20;1.00
24217;DHT22;12356;49.386;8.688;2024-02-23T14:21:52;11.10;1.00
24217;DHT22;12356;49.386;8.688;2024-02-23T14:24:22;11.00;1.00
24217;DHT22;12356;49.386;8.688;2024-02-23T14:26:53;11.00;1.00
24217;DHT22;12356;49.386;8.688;2024-02-23T14:29:23;11.00;1.00
24217;DHT22;12356;49.386;8.688;2024-02-23T14:31:54;11.00;1.00
24217;DHT22;12356;49.386;8.688;2024-02-23T14:34:25;11.00;1.00
24217;DHT22;12356;49.386;8.688;2024-02-23T14:36:56;11.00;1.00
24217;DHT22;12356;49.386;8.688;2024-02-23T14:39:27;11.00;1.00
24217;DHT22;12356;49.386;8.688;2024-02-23T14:41:58;11.00;1.00
24217;DHT22;12356;49.386;8.688;2024-02-23T14:44:28;11.00;1.00
24217;DHT22;12356;49.386;8.688;2024-02-23T14:46:59;11.00;1.00
24217;DHT22;12356;49.386;8.688;2024-02-23T14:49:33;11.10;1.00
24217;DHT22;12356;49.386;8.688;2024-02-23T14:52:04;11.10;1.00
24217;DHT22;12356;49.386;8.688;2024-02-23T14:54:34;11.10;1.00
24217;DHT22;12356;49.386;8.688;2024-02-23T14:57:06;11.10;1.00
24217;DHT22;12356;49.386;8.688;2024-02-23T14:59:36;11.10;1.00
24217;DHT22;12356;49.386;8.688;2024-02-23T15:02:21;11.10;1.00
24217;DHT22;12356;49.386;8.688;2024-02-23T15:04:52;11.10;1.00
24217;DHT22;12356;49.386;8.688;2024-02-23T15:07:22;11.10;1.00
24217;DHT22;12356;49.386;8.688;2024-02-23T15:09:53;11.10;1.00
24217;DHT22;12356;49.386;8.688;2024-02-23T15:12:23;11.10;1.00
24217;DHT22;12356;49.386;8.688;2024-02-23T15:14:58;11.10;1.00
24217;DHT22;12356;49.386;8.688;2024-02-23T15:17:28;11.10;1.00
24217;DHT22;12356;49.386;8.688;2024-02-23T15:19:59;11.10;1.00
24217;DHT22;12356;49.386;8.688;2024-02-23T15:22:30;11.00;1.00
24217;DHT22;12356;49.386;8.688;2024-02-23T15:25:02;11.00;1.00
24217;DHT22;12356;49.386;8.688;2024-02-23T15:27:35;11.00;1.00
24217;DHT22;12356;49.386;8.688;2024-02-23T15:30:06;10.90;1.00
24217;DHT22;12356;49.386;8.688;2024-02-23T15:32:42;11.00;1.00
24217;DHT22;12356;49.386;8.688;2024-02-23T15:35:12;11.00;1.00
24217;DHT22;12356;49.386;8.688;2024-02-23T15:37:43;11.00;1.00
24217;DHT22;12356;49.386;8.688;2024-02-23T15:40:14;10.90;1.00
24217;DHT22;12356;49.386;8.688;2024-02-23T15:42:45;10.90;1.00
24217;DHT22;12356;49.386;8.688;2024-02-23T15:45:16;11.00;1.00
24217;DHT22;12356;49.386;8.688;2024-02-23T15:47:47;10.90;1.00
24217;DHT22;12356;49.386;8.688;2024-02-23T15:50:17;10.90;1.00
24217;DHT22;12356;49.386;8.688;2024-02-23T15:52:49;10.90;1.00
24217;DHT22;12356;49.386;8.688;2024-02-23T15:55:20;10.90;1.00
24217;DHT22;12356;49.386;8.688;2024-02-23T15:57:51;10.90;1.00
24217;DHT22;12356;49.386;8.688;2024-02-23T16:00:22;10.80;1.00
24217;DHT22;12356;49.386;8.688;2024-02-23T16:02:52;10.80;1.00
24217;DHT22;12356;49.386;8.688;2024-02-23T16:05:23;10.70;1.00
24217;DHT22;12356;49.386;8.688;2024-02-23T16:07:54;10.70;1.00
24217;DHT22;12356;49.386;8.688;2024-02-23T16:10:25;10.70;1.00
24217;DHT22;12356;49.386;8.688;2024-02-23T16:12:56;10.60;1.00
24217;DHT22;12356;49.386;8.688;2024-02-23T16:15:28;10.60;1.00